CSN301 ZGGG-YSSY
Flight info
| Callsign | CSN301 |
|---|---|
| Flight time | N/A |
| Altitude | 39000 |
| Route | VIBOS2 VIBOS DCT TAMOT B330 BIGEX A583 IBOBI/N0482F410 A583 ZAM A461 AMN R340 SURVO Y161 OVNOM H652 BOREE |
| Aircraft | A359/H-SDE2E3GHIJ3J4J5LM1ORWXY/LB1D1 |
Departure
| Time | 2026-05-06 09:54 |
|---|---|
| Airport | Guangzhou Baiyun International Airport (ZGGG) |
Arrival
| Time | N/A |
|---|---|
| Airport | Sydney Kingsford Smith International Airport (YSSY) |
| Time | Latitude | Longitude | Altitude | Speed | Heading |
|---|---|---|---|---|---|
| 2026-05-06 09:12 | 23.39426 | 113.29284 | 61 ft | 0 kts | 102° |
| 2026-05-06 09:40 | 23.39430 | 113.29265 | 52 ft | 3 kts | 102° |
| 2026-05-06 09:40 | 23.39434 | 113.29245 | 52 ft | 3 kts | 94° |
| 2026-05-06 09:40 | 23.39418 | 113.29210 | 52 ft | 1 kts | 18° |
| 2026-05-06 09:41 | 23.39417 | 113.29210 | 52 ft | 0 kts | 19° |
| 2026-05-06 09:44 | 23.39430 | 113.29210 | 52 ft | 10 kts | 2° |
| 2026-05-06 09:44 | 23.39514 | 113.29219 | 53 ft | 12 kts | 12° |
| 2026-05-06 09:44 | 23.39592 | 113.29240 | 54 ft | 11 kts | 14° |
| 2026-05-06 09:45 | 23.39662 | 113.29260 | 55 ft | 10 kts | 14° |
| 2026-05-06 09:45 | 23.39730 | 113.29278 | 53 ft | 10 kts | 14° |
| 2026-05-06 09:45 | 23.39801 | 113.29297 | 53 ft | 13 kts | 13° |
| 2026-05-06 09:45 | 23.39894 | 113.29321 | 54 ft | 13 kts | 14° |
| 2026-05-06 09:46 | 23.39980 | 113.29345 | 55 ft | 12 kts | 14° |
| 2026-05-06 09:46 | 23.40058 | 113.29368 | 56 ft | 11 kts | 15° |
| 2026-05-06 09:46 | 23.40131 | 113.29388 | 56 ft | 10 kts | 13° |
| 2026-05-06 09:46 | 23.40198 | 113.29404 | 56 ft | 11 kts | 14° |
| 2026-05-06 09:47 | 23.40342 | 113.29443 | 56 ft | 27 kts | 14° |
| 2026-05-06 09:47 | 23.40522 | 113.29492 | 53 ft | 26 kts | 14° |
| 2026-05-06 09:47 | 23.40657 | 113.29564 | 53 ft | 15 kts | 72° |
| 2026-05-06 09:47 | 23.40638 | 113.29667 | 59 ft | 23 kts | 104° |
| 2026-05-06 09:48 | 23.40598 | 113.29839 | 59 ft | 23 kts | 104° |
| 2026-05-06 09:48 | 23.40561 | 113.30000 | 55 ft | 21 kts | 104° |
| 2026-05-06 09:48 | 23.40526 | 113.30150 | 59 ft | 20 kts | 104° |
| 2026-05-06 09:48 | 23.40494 | 113.30289 | 56 ft | 18 kts | 104° |
| 2026-05-06 09:49 | 23.40464 | 113.30419 | 58 ft | 17 kts | 104° |
| 2026-05-06 09:49 | 23.40437 | 113.30539 | 58 ft | 16 kts | 103° |
| 2026-05-06 09:49 | 23.40410 | 113.30656 | 54 ft | 20 kts | 104° |
| 2026-05-06 09:49 | 23.40439 | 113.30811 | 54 ft | 22 kts | 66° |
| 2026-05-06 09:50 | 23.40430 | 113.30962 | 54 ft | 19 kts | 103° |
| 2026-05-06 09:50 | 23.40425 | 113.31081 | 52 ft | 12 kts | 50° |
| 2026-05-06 09:50 | 23.40495 | 113.31120 | 57 ft | 11 kts | 22° |
| 2026-05-06 09:50 | 23.40565 | 113.31141 | 53 ft | 14 kts | 15° |
| 2026-05-06 09:51 | 23.40665 | 113.31170 | 54 ft | 14 kts | 15° |
| 2026-05-06 09:51 | 23.40759 | 113.31197 | 53 ft | 14 kts | 15° |
| 2026-05-06 09:51 | 23.40845 | 113.31222 | 54 ft | 13 kts | 15° |
| 2026-05-06 09:51 | 23.40901 | 113.31270 | 53 ft | 9 kts | 65° |
| 2026-05-06 09:52 | 23.40904 | 113.31337 | 55 ft | 9 kts | 100° |
| 2026-05-06 09:52 | 23.40884 | 113.31396 | 55 ft | 8 kts | 127° |
| 2026-05-06 09:52 | 23.40841 | 113.31413 | 53 ft | 6 kts | 176° |
| 2026-05-06 09:52 | 23.40804 | 113.31407 | 53 ft | 5 kts | 193° |
| 2026-05-06 09:53 | 23.40774 | 113.31400 | 51 ft | 5 kts | 193° |
| 2026-05-06 09:53 | 23.40716 | 113.31384 | 51 ft | 25 kts | 194° |
| 2026-05-06 09:53 | 23.40342 | 113.31286 | 52 ft | 85 kts | 193° |
| 2026-05-06 09:53 | 23.39593 | 113.31086 | 53 ft | 138 kts | 193° |
| 2026-05-06 09:54 | 23.38524 | 113.30811 | 101 ft | 178 kts | 191° |
| 2026-05-06 09:54 | 23.37328 | 113.30560 | 661 ft | 175 kts | 188° |
| 2026-05-06 09:54 | 23.36179 | 113.30304 | 1244 ft | 175 kts | 192° |
| 2026-05-06 09:54 | 23.34902 | 113.29882 | 1316 ft | 206 kts | 200° |
| 2026-05-06 09:55 | 23.33565 | 113.29131 | 1560 ft | 231 kts | 213° |
| 2026-05-06 09:55 | 23.32384 | 113.27887 | 1760 ft | 243 kts | 236° |
| 2026-05-06 09:55 | 23.31885 | 113.26277 | 1857 ft | 254 kts | 268° |
| 2026-05-06 09:55 | 23.32378 | 113.24421 | 2106 ft | 262 kts | 305° |
| 2026-05-06 09:56 | 23.33761 | 113.23263 | 2642 ft | 252 kts | 342° |
| 2026-05-06 09:56 | 23.35425 | 113.23110 | 3150 ft | 243 kts | 5° |
| 2026-05-06 09:56 | 23.37134 | 113.23006 | 3461 ft | 241 kts | 337° |
| 2026-05-06 09:56 | 23.38422 | 113.21924 | 3713 ft | 234 kts | 298° |
| 2026-05-06 09:57 | 23.38816 | 113.20261 | 3921 ft | 227 kts | 263° |
| 2026-05-06 09:57 | 23.38431 | 113.18637 | 4202 ft | 223 kts | 242° |
| 2026-05-06 09:57 | 23.37557 | 113.17275 | 4474 ft | 220 kts | 223° |
| 2026-05-06 09:57 | 23.36306 | 113.16331 | 4739 ft | 220 kts | 202° |
| 2026-05-06 09:58 | 23.34813 | 113.15987 | 4969 ft | 222 kts | 183° |
| 2026-05-06 09:58 | 23.33262 | 113.16079 | 5221 ft | 225 kts | 174° |
| 2026-05-06 09:58 | 23.31718 | 113.16387 | 5463 ft | 227 kts | 170° |
| 2026-05-06 09:58 | 23.30700 | 113.16651 | 5640 ft | 227 kts | 169° |
| 2026-05-06 09:59 | 23.29162 | 113.17084 | 5898 ft | 229 kts | 169° |
| 2026-05-06 09:59 | 23.27614 | 113.17517 | 6154 ft | 230 kts | 169° |
| 2026-05-06 09:59 | 23.26054 | 113.17933 | 6407 ft | 232 kts | 170° |
| 2026-05-06 09:59 | 23.24483 | 113.18329 | 6650 ft | 233 kts | 171° |
| 2026-05-06 10:00 | 23.22889 | 113.18715 | 6901 ft | 235 kts | 172° |
| 2026-05-06 10:00 | 23.21288 | 113.19091 | 7149 ft | 236 kts | 171° |
| 2026-05-06 10:00 | 23.19120 | 113.19595 | 7497 ft | 239 kts | 172° |
| 2026-05-06 10:00 | 23.18044 | 113.19844 | 7674 ft | 240 kts | 172° |
| 2026-05-06 10:01 | 23.16407 | 113.20224 | 7930 ft | 242 kts | 172° |
| 2026-05-06 10:01 | 23.14796 | 113.20599 | 8185 ft | 244 kts | 172° |
| 2026-05-06 10:01 | 23.13139 | 113.20984 | 8447 ft | 246 kts | 172° |
| 2026-05-06 10:01 | 23.11439 | 113.21380 | 8710 ft | 248 kts | 172° |
| 2026-05-06 10:02 | 23.09738 | 113.21776 | 8961 ft | 251 kts | 172° |
| 2026-05-06 10:02 | 23.08038 | 113.22172 | 9214 ft | 253 kts | 172° |
| 2026-05-06 10:02 | 23.06340 | 113.22568 | 9460 ft | 254 kts | 172° |
| 2026-05-06 10:02 | 23.04603 | 113.22974 | 9707 ft | 256 kts | 172° |
| 2026-05-06 10:03 | 23.02850 | 113.23383 | 9931 ft | 259 kts | 172° |
| 2026-05-06 10:03 | 23.01116 | 113.23787 | 10157 ft | 260 kts | 172° |
| 2026-05-06 10:03 | 22.99310 | 113.24208 | 10388 ft | 262 kts | 172° |
| 2026-05-06 10:03 | 22.97550 | 113.24619 | 10605 ft | 263 kts | 172° |
| 2026-05-06 10:04 | 22.95753 | 113.25037 | 10838 ft | 265 kts | 172° |
| 2026-05-06 10:04 | 22.93943 | 113.25459 | 11064 ft | 267 kts | 172° |
| 2026-05-06 10:04 | 22.92135 | 113.25880 | 11277 ft | 268 kts | 172° |
| 2026-05-06 10:04 | 22.90306 | 113.26305 | 11503 ft | 269 kts | 172° |
| 2026-05-06 10:05 | 22.88468 | 113.26733 | 11728 ft | 271 kts | 172° |
| 2026-05-06 10:05 | 22.86620 | 113.27162 | 11957 ft | 273 kts | 172° |
| 2026-05-06 10:05 | 22.84763 | 113.27594 | 12196 ft | 274 kts | 172° |
| 2026-05-06 10:05 | 22.82890 | 113.28030 | 12420 ft | 276 kts | 172° |
| 2026-05-06 10:06 | 22.80986 | 113.28472 | 12643 ft | 278 kts | 172° |
| 2026-05-06 10:06 | 22.79116 | 113.28906 | 12878 ft | 279 kts | 172° |
| 2026-05-06 10:06 | 22.77333 | 113.29320 | 13087 ft | 281 kts | 172° |
| 2026-05-06 10:06 | 22.75366 | 113.29777 | 13315 ft | 282 kts | 172° |
| 2026-05-06 10:07 | 22.74077 | 113.30076 | 13473 ft | 283 kts | 172° |
| 2026-05-06 10:07 | 22.72156 | 113.30523 | 13686 ft | 285 kts | 172° |
| 2026-05-06 10:07 | 22.70210 | 113.30975 | 13875 ft | 286 kts | 172° |
| 2026-05-06 10:07 | 22.68265 | 113.31426 | 14065 ft | 288 kts | 172° |
| 2026-05-06 10:08 | 22.66346 | 113.31894 | 14242 ft | 290 kts | 167° |
| 2026-05-06 10:08 | 22.64532 | 113.32916 | 14350 ft | 298 kts | 145° |
| 2026-05-06 10:08 | 22.62965 | 113.34394 | 14561 ft | 300 kts | 137° |
| 2026-05-06 10:08 | 22.61738 | 113.35817 | 14733 ft | 302 kts | 133° |
| 2026-05-06 10:09 | 22.60412 | 113.37584 | 14937 ft | 304 kts | 128° |
| 2026-05-06 10:09 | 22.59380 | 113.39190 | 15115 ft | 305 kts | 124° |
| 2026-05-06 10:09 | 22.58421 | 113.40877 | 15273 ft | 306 kts | 122° |
| 2026-05-06 10:09 | 22.57381 | 113.42886 | 15466 ft | 308 kts | 120° |
| 2026-05-06 10:10 | 22.56372 | 113.44945 | 15662 ft | 309 kts | 119° |
| 2026-05-06 10:10 | 22.55412 | 113.46944 | 15854 ft | 310 kts | 119° |
| 2026-05-06 10:10 | 22.54434 | 113.48983 | 16048 ft | 311 kts | 119° |
| 2026-05-06 10:10 | 22.53504 | 113.50908 | 16225 ft | 312 kts | 120° |
| 2026-05-06 10:11 | 22.52491 | 113.52988 | 16432 ft | 313 kts | 120° |
| 2026-05-06 10:11 | 22.51471 | 113.55066 | 16616 ft | 314 kts | 120° |
| 2026-05-06 10:11 | 22.50526 | 113.56985 | 16799 ft | 316 kts | 120° |
| 2026-05-06 10:11 | 22.49605 | 113.58850 | 16964 ft | 317 kts | 120° |
| 2026-05-06 10:12 | 22.48554 | 113.60975 | 17158 ft | 318 kts | 120° |
| 2026-05-06 10:12 | 22.47546 | 113.63014 | 17327 ft | 319 kts | 120° |
| 2026-05-06 10:12 | 22.46488 | 113.65152 | 17533 ft | 320 kts | 120° |
| 2026-05-06 10:12 | 22.45459 | 113.67233 | 17692 ft | 322 kts | 120° |
| 2026-05-06 10:13 | 22.44411 | 113.69351 | 17861 ft | 323 kts | 120° |
| 2026-05-06 10:13 | 22.43347 | 113.71500 | 18022 ft | 324 kts | 120° |
| 2026-05-06 10:13 | 22.42418 | 113.73378 | 18183 ft | 325 kts | 120° |
| 2026-05-06 10:13 | 22.41345 | 113.75544 | 18325 ft | 326 kts | 120° |
| 2026-05-06 10:14 | 22.40280 | 113.77694 | 18508 ft | 326 kts | 120° |
| 2026-05-06 10:14 | 22.39227 | 113.79819 | 18642 ft | 327 kts | 120° |
| 2026-05-06 10:14 | 22.38150 | 113.81992 | 18790 ft | 328 kts | 120° |
| 2026-05-06 10:14 | 22.37070 | 113.84169 | 18915 ft | 330 kts | 120° |
| 2026-05-06 10:15 | 22.35898 | 113.86263 | 19031 ft | 329 kts | 129° |
| 2026-05-06 10:15 | 22.34480 | 113.88208 | 19162 ft | 329 kts | 133° |
| 2026-05-06 10:15 | 22.32987 | 113.90080 | 19277 ft | 330 kts | 134° |
| 2026-05-06 10:15 | 22.31617 | 113.91719 | 19411 ft | 331 kts | 135° |
| 2026-05-06 10:16 | 22.30177 | 113.93404 | 19513 ft | 332 kts | 135° |
| 2026-05-06 10:16 | 22.28549 | 113.95293 | 19662 ft | 333 kts | 136° |
| 2026-05-06 10:16 | 22.27071 | 113.97010 | 19791 ft | 334 kts | 135° |
| 2026-05-06 10:16 | 22.25485 | 113.98858 | 19878 ft | 336 kts | 135° |
| 2026-05-06 10:17 | 22.23872 | 114.00742 | 20021 ft | 337 kts | 136° |
| 2026-05-06 10:17 | 22.22252 | 114.02391 | 20146 ft | 336 kts | 144° |
| 2026-05-06 10:17 | 22.20343 | 114.03840 | 20259 ft | 334 kts | 152° |
| 2026-05-06 10:17 | 22.18350 | 114.05120 | 20393 ft | 335 kts | 154° |
| 2026-05-06 10:18 | 22.16296 | 114.06341 | 20499 ft | 336 kts | 155° |
| 2026-05-06 10:18 | 22.14229 | 114.07520 | 20632 ft | 337 kts | 155° |
| 2026-05-06 10:18 | 22.12152 | 114.08689 | 20752 ft | 338 kts | 155° |
| 2026-05-06 10:18 | 22.10060 | 114.09866 | 20886 ft | 339 kts | 155° |
| 2026-05-06 10:19 | 22.07962 | 114.11052 | 21011 ft | 340 kts | 155° |
| 2026-05-06 10:19 | 22.05867 | 114.12244 | 21138 ft | 341 kts | 155° |
| 2026-05-06 10:19 | 22.03758 | 114.13449 | 21255 ft | 342 kts | 155° |
| 2026-05-06 10:19 | 22.01681 | 114.14639 | 21402 ft | 343 kts | 155° |
| 2026-05-06 10:20 | 21.99537 | 114.15868 | 21517 ft | 345 kts | 155° |
| 2026-05-06 10:20 | 21.97424 | 114.17080 | 21630 ft | 346 kts | 155° |
| 2026-05-06 10:20 | 21.95303 | 114.18296 | 21751 ft | 347 kts | 155° |
| 2026-05-06 10:20 | 21.93203 | 114.19499 | 21871 ft | 348 kts | 155° |
| 2026-05-06 10:21 | 21.91027 | 114.20745 | 21992 ft | 349 kts | 155° |
| 2026-05-06 10:21 | 21.88878 | 114.21975 | 22116 ft | 350 kts | 155° |
| 2026-05-06 10:21 | 21.86766 | 114.23183 | 22233 ft | 351 kts | 155° |
| 2026-05-06 10:21 | 21.84600 | 114.24422 | 22328 ft | 353 kts | 155° |
| 2026-05-06 10:22 | 21.82441 | 114.25655 | 22442 ft | 354 kts | 155° |
| 2026-05-06 10:22 | 21.80252 | 114.26906 | 22566 ft | 356 kts | 155° |
| 2026-05-06 10:22 | 21.78252 | 114.28049 | 22673 ft | 357 kts | 155° |
| 2026-05-06 10:22 | 21.76057 | 114.29302 | 22777 ft | 359 kts | 155° |
| 2026-05-06 10:23 | 21.73831 | 114.30572 | 22775 ft | 364 kts | 155° |
| 2026-05-06 10:23 | 21.71577 | 114.31857 | 22805 ft | 368 kts | 155° |
| 2026-05-06 10:23 | 21.69326 | 114.33140 | 22896 ft | 371 kts | 155° |
| 2026-05-06 10:23 | 21.67022 | 114.34454 | 23015 ft | 373 kts | 155° |
| 2026-05-06 10:24 | 21.64747 | 114.35752 | 23147 ft | 374 kts | 155° |
| 2026-05-06 10:24 | 21.62583 | 114.36985 | 23283 ft | 375 kts | 155° |
| 2026-05-06 10:24 | 21.60263 | 114.38308 | 23426 ft | 377 kts | 155° |
| 2026-05-06 10:24 | 21.58249 | 114.39455 | 23561 ft | 377 kts | 155° |
| 2026-05-06 10:25 | 21.55915 | 114.40784 | 23697 ft | 378 kts | 155° |
| 2026-05-06 10:25 | 21.53551 | 114.42130 | 23823 ft | 379 kts | 155° |
| 2026-05-06 10:25 | 21.51227 | 114.43452 | 23935 ft | 380 kts | 155° |
| 2026-05-06 10:25 | 21.48953 | 114.44745 | 24057 ft | 381 kts | 155° |
| 2026-05-06 10:26 | 21.46655 | 114.46051 | 24178 ft | 381 kts | 155° |
| 2026-05-06 10:26 | 21.44683 | 114.47171 | 24276 ft | 382 kts | 155° |
| 2026-05-06 10:26 | 21.42474 | 114.48426 | 24406 ft | 383 kts | 155° |
| 2026-05-06 10:26 | 21.40569 | 114.49508 | 24497 ft | 384 kts | 155° |
| 2026-05-06 10:27 | 21.38763 | 114.50533 | 24599 ft | 384 kts | 155° |
| 2026-05-06 10:27 | 21.36959 | 114.51557 | 24702 ft | 385 kts | 155° |
| 2026-05-06 10:27 | 21.35184 | 114.52564 | 24785 ft | 385 kts | 155° |
| 2026-05-06 10:27 | 21.33654 | 114.53432 | 24859 ft | 386 kts | 155° |
| 2026-05-06 10:28 | 21.32170 | 114.54274 | 24937 ft | 386 kts | 155° |
| 2026-05-06 10:28 | 21.30576 | 114.55177 | 25026 ft | 387 kts | 155° |
| 2026-05-06 10:28 | 21.29179 | 114.55969 | 25087 ft | 387 kts | 155° |
| 2026-05-06 10:28 | 21.27860 | 114.56717 | 25150 ft | 388 kts | 155° |
| 2026-05-06 10:29 | 21.26608 | 114.57426 | 25198 ft | 388 kts | 155° |
| 2026-05-06 10:29 | 21.25661 | 114.57963 | 25249 ft | 388 kts | 155° |
| 2026-05-06 10:29 | 21.24196 | 114.58792 | 25321 ft | 389 kts | 155° |
| 2026-05-06 10:29 | 21.22976 | 114.59483 | 25390 ft | 389 kts | 155° |
| 2026-05-06 10:30 | 21.22148 | 114.59952 | 25419 ft | 390 kts | 155° |
| 2026-05-06 10:30 | 21.20928 | 114.60642 | 25479 ft | 390 kts | 155° |
| 2026-05-06 10:30 | 21.19787 | 114.61288 | 25523 ft | 390 kts | 155° |
| 2026-05-06 10:30 | 21.19206 | 114.61617 | 25552 ft | 390 kts | 155° |
| 2026-05-06 10:31 | 21.18286 | 114.62138 | 25602 ft | 390 kts | 155° |
| 2026-05-06 10:31 | 21.17389 | 114.62645 | 25649 ft | 391 kts | 155° |
| 2026-05-06 10:31 | 21.15954 | 114.63458 | 25718 ft | 391 kts | 155° |
| 2026-05-06 10:31 | 21.15393 | 114.63775 | 25735 ft | 391 kts | 155° |
| 2026-05-06 10:32 | 21.14350 | 114.64365 | 25783 ft | 391 kts | 155° |
| 2026-05-06 10:32 | 21.13808 | 114.64671 | 25805 ft | 392 kts | 155° |
| 2026-05-06 10:32 | 21.12897 | 114.65186 | 25837 ft | 392 kts | 155° |
| 2026-05-06 10:32 | 21.11509 | 114.65970 | 25901 ft | 392 kts | 155° |
| 2026-05-06 10:33 | 21.10818 | 114.66361 | 25934 ft | 393 kts | 155° |
| 2026-05-06 10:33 | 21.10273 | 114.66669 | 25967 ft | 393 kts | 155° |
| 2026-05-06 10:33 | 21.09492 | 114.67110 | 25993 ft | 393 kts | 155° |
| 2026-05-06 10:33 | 21.08726 | 114.67543 | 26026 ft | 393 kts | 155° |
| 2026-05-06 10:34 | 21.08011 | 114.67947 | 26058 ft | 393 kts | 155° |
| 2026-05-06 10:34 | 21.07129 | 114.68445 | 26088 ft | 394 kts | 155° |
| 2026-05-06 10:34 | 21.06444 | 114.68832 | 26127 ft | 394 kts | 155° |
| 2026-05-06 10:34 | 21.05940 | 114.69117 | 26140 ft | 394 kts | 155° |
| 2026-05-06 10:35 | 21.05276 | 114.69492 | 26155 ft | 394 kts | 155° |
| 2026-05-06 10:35 | 21.04605 | 114.69871 | 26179 ft | 394 kts | 155° |
| 2026-05-06 10:35 | 21.03928 | 114.70253 | 26221 ft | 395 kts | 155° |
| 2026-05-06 10:35 | 21.03149 | 114.70693 | 26254 ft | 395 kts | 155° |
| 2026-05-06 10:36 | 21.02459 | 114.71082 | 26288 ft | 395 kts | 155° |
| 2026-05-06 10:36 | 21.01927 | 114.71382 | 26312 ft | 395 kts | 155° |
| 2026-05-06 10:36 | 21.01181 | 114.71803 | 26334 ft | 395 kts | 155° |
| 2026-05-06 10:36 | 21.00645 | 114.72106 | 26366 ft | 396 kts | 155° |
| 2026-05-06 10:37 | 21.00116 | 114.72404 | 26382 ft | 396 kts | 155° |
| 2026-05-06 10:37 | 20.99260 | 114.72887 | 26410 ft | 396 kts | 155° |
| 2026-05-06 10:37 | 20.98261 | 114.73451 | 26455 ft | 396 kts | 155° |
| 2026-05-06 10:37 | 20.97580 | 114.73835 | 26475 ft | 397 kts | 155° |
| 2026-05-06 10:38 | 20.96819 | 114.74264 | 26508 ft | 397 kts | 155° |
| 2026-05-06 10:38 | 20.96164 | 114.74634 | 26534 ft | 397 kts | 155° |
| 2026-05-06 10:38 | 20.95733 | 114.74877 | 26549 ft | 397 kts | 155° |
| 2026-05-06 10:38 | 20.95035 | 114.75270 | 26579 ft | 397 kts | 155° |
| 2026-05-06 10:39 | 20.94122 | 114.75785 | 26624 ft | 398 kts | 155° |
| 2026-05-06 10:39 | 20.93688 | 114.76030 | 26638 ft | 398 kts | 155° |
| 2026-05-06 10:39 | 20.92927 | 114.76459 | 26657 ft | 398 kts | 155° |
| 2026-05-06 10:39 | 20.92271 | 114.76829 | 26679 ft | 398 kts | 155° |
| 2026-05-06 10:40 | 20.91751 | 114.77122 | 26708 ft | 398 kts | 155° |
| 2026-05-06 10:40 | 20.91135 | 114.77468 | 26724 ft | 399 kts | 155° |
| 2026-05-06 10:40 | 20.90855 | 114.77626 | 26734 ft | 399 kts | 155° |
| 2026-05-06 10:40 | 20.90187 | 114.78002 | 26760 ft | 399 kts | 155° |
| 2026-05-06 10:41 | 20.89722 | 114.78265 | 26780 ft | 399 kts | 155° |
| 2026-05-06 10:41 | 20.88892 | 114.78732 | 26808 ft | 399 kts | 155° |
| 2026-05-06 10:41 | 20.88300 | 114.79066 | 26821 ft | 399 kts | 155° |
| 2026-05-06 10:41 | 20.87708 | 114.79399 | 26854 ft | 399 kts | 155° |
| 2026-05-06 10:42 | 20.87259 | 114.79652 | 26868 ft | 400 kts | 155° |
| 2026-05-06 10:42 | 20.86753 | 114.79937 | 26880 ft | 400 kts | 155° |
| 2026-05-06 10:42 | 20.86427 | 114.80120 | 26895 ft | 400 kts | 155° |
| 2026-05-06 10:42 | 20.85893 | 114.80421 | 26914 ft | 400 kts | 155° |
| 2026-05-06 10:43 | 20.85440 | 114.80676 | 26952 ft | 399 kts | 155° |
| 2026-05-06 10:43 | 20.84951 | 114.80951 | 26981 ft | 399 kts | 155° |
| 2026-05-06 10:43 | 20.84409 | 114.81257 | 27012 ft | 399 kts | 155° |
| 2026-05-06 10:44 | 20.83455 | 114.81794 | 27049 ft | 399 kts | 155° |
| 2026-05-06 10:44 | 20.82970 | 114.82067 | 27056 ft | 400 kts | 155° |